KRST/RST METAR and TAF weather

Enter ICAO airport designator
Station Type Date Time Source
KRST METAR 2021/04/17 02:54 UTC NOAA

KRST 170254Z 35007KT 10SM CLR 07/M03 A3001 RMK AO2 SLP168 T00671033 53010 $


Station Type Date Time Source
KRST Decoded METAR 2021/04/17 02:54 UTC NOAA

ROCHESTER INTERNATIONAL AIRPORT , MN, United States (KRST) 43-54N 092-30W 403M
Apr 16, 2021 - 10:54 PM EDT / 2021.04.17 0254 UTC
Wind: from the N (350 degrees) at 8 MPH (7 KT):0
Visibility: 10 mile(s):0
Sky conditions: clear
Temperature: 44.1 F (6.7 C)
Dew Point: 26.1 F (-3.3 C)
Relative Humidity: 48%
Pressure (altimeter): 30.01 in. Hg (1016 hPa)
Pressure tendency: 0.03 inches (1.0 hPa) higher than three hours ago
ob: KRST 170254Z 35007KT 10SM CLR 07/M03 A3001 RMK AO2 SLP168 T00671033 53010
cycle: 3

Station Type Date Time Source
KRST TAF 2021/04/16 18:22 UTC NOAA

TAF KRST 161720Z 1618/1718 35007KT P6SM FEW045 SCT100

Example: see airport list